Keene, Nebraska
Current Conditions -  °F | °C
As of 4:15 PM on Tuesday 25 Nov 2014 (Local Time) from KHDE Reporting Station
Overcast Overcast  
Wind Chill: 40°   Ceiling: 6500
Heat Index: 45°   Visibility: 10mi
Dew Point: 16°   Wind: 9mph
Humidity: 31%   Direction: 210°SSW
Pressure: 29.86"   Gusts: NA
Location:  40.5474°N, 99.1227°W
Report Text: KHDE 252215Z AUTO 21008KT 10SM BKN065 OVC075 07/M09 A2986 RMK AO2 T00721090
Loading
Personal Weather Stations






























Interactive Weather Map New forecast layout! Learn more

10-Day Weather Forecast

Advertisements
Track Severe Weather on mobile